createdAt,value
2018-06-04T00:00:22.771Z,15.40
2018-06-04T00:02:51.698Z,15.50
2018-06-04T00:05:29.932Z,15.50
2018-06-04T00:07:58.868Z,15.40
2018-06-04T00:13:32.300Z,15.40
2018-06-04T00:16:01.260Z,15.40
2018-06-04T00:18:30.109Z,15.30
2018-06-04T00:21:00.523Z,15.20
2018-06-04T00:23:30.191Z,15.20
2018-06-04T00:25:59.543Z,15.20
2018-06-04T00:28:28.490Z,15.10
2018-06-04T00:34:22.285Z,15.00
2018-06-04T00:36:58.781Z,14.90
2018-06-04T00:39:35.404Z,14.90
2018-06-04T00:42:29.114Z,14.80
2018-06-04T00:47:32.555Z,14.80
2018-06-04T00:50:01.575Z,14.70
2018-06-04T00:52:30.449Z,14.70
2018-06-04T00:57:58.706Z,14.60
2018-06-04T01:06:32.036Z,14.50
2018-06-04T01:09:00.954Z,14.40
2018-06-04T01:11:59.480Z,14.40
2018-06-04T01:14:28.931Z,14.50
2018-06-04T01:16:58.649Z,14.60
2018-06-04T01:19:27.707Z,14.70
2018-06-04T01:24:30.327Z,14.50
2018-06-04T01:26:59.863Z,14.60
2018-06-04T01:32:44.496Z,14.60
2018-06-04T01:35:13.676Z,14.50
2018-06-04T01:37:42.779Z,14.40
2018-06-04T01:43:18.807Z,14.30
2018-06-04T01:45:48.155Z,14.30
2018-06-04T01:48:17.844Z,14.30
2018-06-04T01:50:46.942Z,14.40
2018-06-04T01:53:16.483Z,14.40
2018-06-04T01:55:46.242Z,14.50
2018-06-04T01:58:15.346Z,14.30
2018-06-04T02:00:45.558Z,14.50
2018-06-04T02:03:15.840Z,14.40
2018-06-04T02:05:45.061Z,14.20
2018-06-04T02:08:14.506Z,14.20
2018-06-04T02:10:44.280Z,14.20
2018-06-04T02:13:13.478Z,14.50
2018-06-04T02:15:43.143Z,14.10
2018-06-04T02:18:12.832Z,14.00
2018-06-04T02:20:41.768Z,14.10
2018-06-04T02:23:11.154Z,14.10
2018-06-04T02:25:40.904Z,14.30
2018-06-04T02:28:10.085Z,14.20
2018-06-04T02:30:39.080Z,14.10
2018-06-04T02:33:08.165Z,14.10
2018-06-04T02:35:37.209Z,14.10
2018-06-04T02:38:06.258Z,14.10
2018-06-04T02:40:35.206Z,14.20
2018-06-04T02:43:04.715Z,14.00
2018-06-04T02:45:33.906Z,14.00
2018-06-04T02:48:03.579Z,14.00
2018-06-04T02:50:33.094Z,14.10
2018-06-04T02:53:02.631Z,14.00
2018-06-04T02:55:32.088Z,13.90
2018-06-04T02:58:01.367Z,13.90
2018-06-04T03:00:31.275Z,14.00
2018-06-04T03:05:29.936Z,13.80
2018-06-04T03:07:59.211Z,13.80
2018-06-04T03:10:29.256Z,13.80
2018-06-04T03:12:58.389Z,13.90
2018-06-04T03:15:27.841Z,13.80
2018-06-04T03:17:57.112Z,13.80
2018-06-04T03:23:01.068Z,13.80
2018-06-04T03:25:31.216Z,13.60
2018-06-04T03:28:00.400Z,13.60
2018-06-04T03:33:40.873Z,13.70
2018-06-04T03:36:11.087Z,13.60
2018-06-04T03:38:40.357Z,13.60
2018-06-04T03:41:10.429Z,13.60
2018-06-04T03:43:40.675Z,13.60
2018-06-04T03:46:10.405Z,13.60
2018-06-04T03:48:39.444Z,13.70
2018-06-04T03:51:08.947Z,13.60
2018-06-04T03:53:38.218Z,13.70
2018-06-04T03:56:07.886Z,13.70
2018-06-04T03:58:37.356Z,13.80
2018-06-04T04:01:06.587Z,13.70
2018-06-04T04:03:36.043Z,13.80
2018-06-04T04:06:05.762Z,13.70
2018-06-04T04:08:35.357Z,13.60
2018-06-04T04:13:33.130Z,14.00
2018-06-04T04:16:02.679Z,14.10
2018-06-04T04:18:31.467Z,14.10
2018-06-04T04:26:26.729Z,14.10
2018-06-04T04:28:55.506Z,14.30
2018-06-04T04:31:24.742Z,14.50
2018-06-04T04:33:55.613Z,14.70
2018-06-04T04:36:24.459Z,14.80
2018-06-04T04:38:53.360Z,14.80
2018-06-04T04:43:50.792Z,15.10
2018-06-04T04:46:19.646Z,15.20
2018-06-04T04:48:48.561Z,15.30
2018-06-04T04:51:17.598Z,15.60
2018-06-04T04:53:46.414Z,15.80
2018-06-04T04:56:15.920Z,16.10
2018-06-04T04:58:44.705Z,16.30
2018-06-04T05:01:13.982Z,16.60
2018-06-04T05:03:43.282Z,16.80
2018-06-04T05:15:28.316Z,17.50
2018-06-04T05:18:07.108Z,17.80
2018-06-04T05:20:36.004Z,18.00
2018-06-04T05:23:12.339Z,18.20
2018-06-04T05:25:41.359Z,18.30
2018-06-04T05:28:20.601Z,18.60
2018-06-04T05:31:00.871Z,18.80
2018-06-04T05:33:29.751Z,19.10
2018-06-04T05:35:58.654Z,19.40
2018-06-04T05:38:27.632Z,19.70
2018-06-04T05:40:56.544Z,19.90
2018-06-04T05:43:25.478Z,20.10
2018-06-04T05:45:54.330Z,20.20
2018-06-04T05:48:23.427Z,20.40
2018-06-04T05:53:21.065Z,20.80
2018-06-04T05:55:49.958Z,21.00
2018-06-04T05:58:18.808Z,21.10
2018-06-04T06:00:59.303Z,21.20
2018-06-04T06:03:29.177Z,21.40
2018-06-04T06:05:58.202Z,21.70
2018-06-04T06:14:00.926Z,21.60
2018-06-04T06:16:29.947Z,21.40
2018-06-04T06:19:00.901Z,21.20
2018-06-04T06:21:29.898Z,21.10
2018-06-04T06:23:58.894Z,21.20
2018-06-04T06:26:29.117Z,21.20
2018-06-04T06:28:58.102Z,21.20
2018-06-04T06:31:26.958Z,21.20
2018-06-04T06:34:01.515Z,21.40
2018-06-04T06:36:30.374Z,21.60
2018-06-04T06:41:37.740Z,22.40
2018-06-04T06:44:06.585Z,22.40
2018-06-04T06:49:04.031Z,22.60
2018-06-04T06:51:32.720Z,22.70
2018-06-04T06:54:01.735Z,22.80
2018-06-04T06:56:31.324Z,22.80
2018-06-04T06:59:00.069Z,22.90
2018-06-04T07:01:28.753Z,22.40
2018-06-04T07:03:57.398Z,22.50
2018-06-04T07:06:37.070Z,22.80
2018-06-04T07:09:16.411Z,23.00
2018-06-04T07:11:46.513Z,22.70
2018-06-04T07:14:15.395Z,23.20
2018-06-04T07:16:44.963Z,23.00
2018-06-04T07:19:15.956Z,22.60
2018-06-04T07:21:44.955Z,22.90
2018-06-04T07:27:10.547Z,23.40
2018-06-04T07:29:45.662Z,23.60
2018-06-04T07:32:15.391Z,23.40
2018-06-04T07:34:44.255Z,23.20
2018-06-04T07:37:13.006Z,23.00
2018-06-04T07:39:42.374Z,22.90
2018-06-04T07:42:24.702Z,23.20
2018-06-04T07:44:59.864Z,22.70
2018-06-04T07:47:32.758Z,22.50
2018-06-04T07:50:01.875Z,22.70
2018-06-04T07:52:30.588Z,23.10
2018-06-04T07:55:03.322Z,23.10
2018-06-04T07:57:33.685Z,23.30
2018-06-04T08:00:02.499Z,23.50
2018-06-04T08:02:52.447Z,24.10
2018-06-04T08:05:21.227Z,23.70
2018-06-04T08:07:59.764Z,23.30
2018-06-04T08:10:29.121Z,23.70
2018-06-04T08:15:26.860Z,24.20
2018-06-04T08:17:55.664Z,24.60
2018-06-04T08:20:24.573Z,24.60
2018-06-04T08:25:09.749Z,24.30
2018-06-04T08:27:56.769Z,24.20
2018-06-04T08:32:58.167Z,23.80
2018-06-04T08:35:30.427Z,24.10
2018-06-04T08:37:59.316Z,24.10
2018-06-04T08:40:32.657Z,23.80
2018-06-04T08:43:01.425Z,24.10
2018-06-04T08:45:30.470Z,24.60
2018-06-04T08:48:00.394Z,24.80
2018-06-04T08:50:33.705Z,25.40
2018-06-04T08:53:14.216Z,25.50
2018-06-04T08:55:43.042Z,25.40
2018-06-04T08:58:11.795Z,25.00
2018-06-04T09:00:40.557Z,25.20
2018-06-04T09:06:05.050Z,24.40
2018-06-04T09:08:33.778Z,24.70
2018-06-04T09:11:02.987Z,25.00
2018-06-04T09:13:31.931Z,25.20
2018-06-04T09:16:01.027Z,25.20
2018-06-04T09:18:29.920Z,26.30
2018-06-04T09:21:00.355Z,26.60
2018-06-04T09:23:29.149Z,26.80
2018-06-04T09:28:56.079Z,27.30
2018-06-04T09:33:54.123Z,26.70
2018-06-04T09:36:38.396Z,26.30
2018-06-04T09:39:08.097Z,26.80
2018-06-04T09:41:37.031Z,26.90
2018-06-04T09:44:06.394Z,27.00
2018-06-04T09:46:35.318Z,26.20
2018-06-04T09:49:04.166Z,26.00
2018-06-04T09:51:37.612Z,27.00
2018-06-04T09:54:15.748Z,27.30
2018-06-04T09:56:44.997Z,27.80
2018-06-04T09:59:17.815Z,28.10
2018-06-04T10:01:48.149Z,27.90
2018-06-04T10:04:16.899Z,27.40
2018-06-04T10:06:45.686Z,26.90
2018-06-04T10:09:14.598Z,26.90
2018-06-04T10:11:50.298Z,26.80
2018-06-04T10:17:09.116Z,28.40
2018-06-04T10:19:47.374Z,28.80
2018-06-04T10:22:19.250Z,27.70
2018-06-04T10:24:48.166Z,28.00
2018-06-04T10:27:21.697Z,28.00
2018-06-04T10:29:50.457Z,28.10
2018-06-04T10:32:19.143Z,28.10
2018-06-04T10:34:47.835Z,28.10
2018-06-04T10:37:17.316Z,28.10
2018-06-04T10:39:48.059Z,28.90
2018-06-04T10:44:57.839Z,27.60
2018-06-04T10:47:29.397Z,27.30
2018-06-04T10:49:58.385Z,27.00
2018-06-04T10:52:27.612Z,28.40
2018-06-04T10:54:56.563Z,29.40
2018-06-04T10:57:25.370Z,28.40
2018-06-04T10:59:54.093Z,27.40
2018-06-04T11:02:22.845Z,27.10
2018-06-04T11:04:51.628Z,27.20
2018-06-04T11:07:31.754Z,27.50
2018-06-04T11:10:01.097Z,27.60
2018-06-04T11:12:30.361Z,26.60
2018-06-04T11:17:36.778Z,26.30
2018-06-04T11:20:05.667Z,25.90
2018-06-04T11:22:34.926Z,25.90
2018-06-04T11:25:04.079Z,25.90
2018-06-04T11:27:47.495Z,25.70
2018-06-04T11:30:16.328Z,25.40
2018-06-04T11:32:45.365Z,26.00
2018-06-04T11:35:14.149Z,26.70
2018-06-04T11:37:42.912Z,27.70
2018-06-04T11:40:17.498Z,28.40
2018-06-04T11:42:50.831Z,28.50
2018-06-04T11:45:19.580Z,29.30
2018-06-04T11:47:49.400Z,28.60
2018-06-04T11:50:18.139Z,27.90
2018-06-04T11:52:47.265Z,27.40
2018-06-04T11:55:15.939Z,26.90
2018-06-04T11:57:45.080Z,26.70
2018-06-04T12:00:14.097Z,26.90
2018-06-04T12:02:42.849Z,26.50
2018-06-04T12:05:11.923Z,27.00
2018-06-04T12:07:42.147Z,27.40
2018-06-04T12:10:17.166Z,28.30
2018-06-04T12:12:46.193Z,29.10
2018-06-04T12:15:15.019Z,28.60
2018-06-04T12:17:50.042Z,28.20
2018-06-04T12:22:49.416Z,27.30
2018-06-04T12:25:18.812Z,27.90
2018-06-04T12:30:28.775Z,27.90
2018-06-04T12:32:57.599Z,28.10
2018-06-04T12:35:40.447Z,28.10
2018-06-04T12:38:12.438Z,28.00
2018-06-04T12:43:17.355Z,27.90
2018-06-04T12:45:46.063Z,28.30
2018-06-04T12:48:14.782Z,29.40
2018-06-04T12:50:43.573Z,28.50
2018-06-04T12:53:12.287Z,29.20
2018-06-04T12:55:41.069Z,28.30
2018-06-04T12:58:18.289Z,28.50
2018-06-04T13:00:52.738Z,28.40
2018-06-04T13:03:21.757Z,29.00
2018-06-04T13:05:50.574Z,29.00
2018-06-04T13:08:19.392Z,28.40
2018-06-04T13:10:48.159Z,29.00
2018-06-04T13:13:36.178Z,29.60
2018-06-04T13:16:04.981Z,29.60
2018-06-04T13:18:39.462Z,28.10
2018-06-04T13:21:08.590Z,27.60
2018-06-04T13:23:37.664Z,28.10
2018-06-04T13:26:06.498Z,28.00
2018-06-04T13:28:37.204Z,27.90
2018-06-04T13:31:06.008Z,28.40
2018-06-04T13:33:35.649Z,28.90
2018-06-04T13:36:08.361Z,27.30
2018-06-04T13:38:38.762Z,27.30
2018-06-04T13:41:07.658Z,27.30
2018-06-04T13:43:37.533Z,27.10
2018-06-04T13:46:06.363Z,26.90
2018-06-04T13:48:35.082Z,26.60
2018-06-04T13:51:17.278Z,26.70
2018-06-04T13:53:46.825Z,27.20
2018-06-04T13:56:18.014Z,27.60
2018-06-04T13:58:51.099Z,27.50
2018-06-04T14:01:20.499Z,27.50
2018-06-04T14:04:18.046Z,27.20
2018-06-04T14:06:46.769Z,27.00
2018-06-04T14:09:15.625Z,27.10
2018-06-04T14:11:50.444Z,27.20
2018-06-04T14:19:18.885Z,27.00
2018-06-04T14:21:47.657Z,26.90
2018-06-04T14:24:29.974Z,26.20
2018-06-04T14:26:58.735Z,26.30
2018-06-04T14:29:27.577Z,26.10
2018-06-04T14:34:51.327Z,26.20
2018-06-04T14:37:20.203Z,25.90
2018-06-04T14:39:48.932Z,26.00
2018-06-04T14:42:17.574Z,26.10
2018-06-04T14:44:51.330Z,25.90
2018-06-04T14:47:20.907Z,25.90
2018-06-04T14:49:49.690Z,26.10
2018-06-04T14:52:51.059Z,26.10
2018-06-04T14:55:49.638Z,26.00
2018-06-04T15:00:53.692Z,25.60
2018-06-04T15:03:28.416Z,25.20
2018-06-04T15:05:57.201Z,25.20
2018-06-04T15:08:26.060Z,25.40
2018-06-04T15:11:00.233Z,25.30
2018-06-04T15:16:08.392Z,25.30
2018-06-04T15:18:37.077Z,25.30
2018-06-04T15:21:05.805Z,25.20
2018-06-04T15:23:34.472Z,25.20
2018-06-04T15:26:03.307Z,25.30
2018-06-04T15:28:31.867Z,25.20
2018-06-04T15:31:18.803Z,25.20
2018-06-04T15:33:51.398Z,25.30
2018-06-04T15:36:21.096Z,25.50
2018-06-04T15:38:49.891Z,25.10
2018-06-04T15:41:33.784Z,25.00
2018-06-04T15:44:02.653Z,25.10
2018-06-04T15:46:31.537Z,25.00
2018-06-04T15:49:07.466Z,25.00
2018-06-04T15:51:39.747Z,25.10
2018-06-04T15:54:08.610Z,24.80
2018-06-04T15:56:38.496Z,24.50
2018-06-04T15:59:14.109Z,24.30
2018-06-04T16:01:43.420Z,24.30
2018-06-04T16:04:12.309Z,24.30
2018-06-04T16:06:41.094Z,24.20
2018-06-04T16:12:03.354Z,24.50
2018-06-04T16:14:36.828Z,24.80
2018-06-04T16:17:05.788Z,24.80
2018-06-04T16:19:34.638Z,24.90
2018-06-04T16:25:01.462Z,24.60
2018-06-04T16:27:30.515Z,24.40
2018-06-04T16:29:59.387Z,24.40
2018-06-04T16:32:28.122Z,24.50
2018-06-04T16:34:57.021Z,24.50
2018-06-04T16:39:59.196Z,24.30
2018-06-04T16:42:36.844Z,24.20
2018-06-04T16:45:06.110Z,23.90
2018-06-04T16:47:39.617Z,23.80
2018-06-04T16:51:24.634Z,23.80
2018-06-04T16:53:54.844Z,23.70
2018-06-04T16:56:23.604Z,23.70
2018-06-04T16:58:52.728Z,23.90
2018-06-04T17:01:21.413Z,23.90
2018-06-04T17:03:50.364Z,23.90
2018-06-04T17:06:20.821Z,23.80
2018-06-04T17:08:51.354Z,23.80
2018-06-04T17:11:48.191Z,23.80
2018-06-04T17:22:26.650Z,23.70
2018-06-04T17:24:55.405Z,23.50
2018-06-04T17:27:24.227Z,23.40
2018-06-04T17:29:53.152Z,23.30
2018-06-04T17:32:22.374Z,23.20
2018-06-04T17:34:51.352Z,23.20
2018-06-04T17:37:21.961Z,23.10
2018-06-04T17:39:50.692Z,23.20
2018-06-04T17:42:48.119Z,23.10
2018-06-04T17:57:17.461Z,22.70
2018-06-04T18:02:54.576Z,22.50
2018-06-04T18:05:23.821Z,22.40
2018-06-04T18:08:00.748Z,22.40
2018-06-04T18:10:29.732Z,22.40
2018-06-04T18:12:58.795Z,22.30
2018-06-04T18:21:18.794Z,22.30
2018-06-04T18:24:08.904Z,22.30
2018-06-04T18:26:38.005Z,22.30
2018-06-04T18:29:06.978Z,22.30
2018-06-04T18:31:35.850Z,22.20
2018-06-04T18:34:06.449Z,22.10
2018-06-04T18:36:47.361Z,22.10
2018-06-04T18:39:16.526Z,22.00
2018-06-04T18:41:45.435Z,22.00
2018-06-04T18:44:14.502Z,22.00
2018-06-04T18:46:44.208Z,21.90
2018-06-04T18:49:14.106Z,21.80
2018-06-04T18:51:43.556Z,21.70
2018-06-04T18:54:24.517Z,21.70
2018-06-04T18:57:22.558Z,21.60
2018-06-04T18:59:51.442Z,21.50
2018-06-04T19:02:20.309Z,21.50
2018-06-04T19:04:49.671Z,21.40
2018-06-04T19:10:16.298Z,21.20
2018-06-04T19:12:45.446Z,21.20
2018-06-04T19:15:32.133Z,21.10
2018-06-04T19:18:01.082Z,21.10
2018-06-04T19:20:30.907Z,21.00
2018-06-04T19:23:05.799Z,21.00
2018-06-04T19:25:36.504Z,20.90
2018-06-04T19:28:05.922Z,20.80
2018-06-04T19:30:34.740Z,20.80
2018-06-04T19:33:04.903Z,20.80
2018-06-04T19:53:47.156Z,20.40
2018-06-04T19:56:19.145Z,20.40
2018-06-04T20:01:53.199Z,20.30
2018-06-04T20:07:12.729Z,20.10
2018-06-04T20:15:40.570Z,20.00
2018-06-04T20:18:09.636Z,19.90
2018-06-04T20:20:38.392Z,19.90
2018-06-04T20:23:07.154Z,19.80
2018-06-04T20:25:38.910Z,19.80
2018-06-04T20:28:09.733Z,19.80
2018-06-04T20:30:43.167Z,19.70
2018-06-04T20:35:49.965Z,19.60
2018-06-04T20:38:18.924Z,19.60
2018-06-04T20:40:47.878Z,19.50
2018-06-04T20:43:18.237Z,19.60
2018-06-04T20:46:35.832Z,19.60
2018-06-04T20:51:56.363Z,19.40
2018-06-04T20:54:25.138Z,19.40
2018-06-04T20:57:05.641Z,19.50
2018-06-04T21:05:49.267Z,19.50
2018-06-04T21:08:18.138Z,19.50
2018-06-04T21:11:07.642Z,19.50
2018-06-04T21:13:36.477Z,19.40
2018-06-04T21:16:11.158Z,19.30
2018-06-04T21:18:45.632Z,19.10
2018-06-04T21:21:14.463Z,19.00
2018-06-04T21:27:04.069Z,19.10
2018-06-04T21:35:22.424Z,18.90
2018-06-04T21:40:53.838Z,18.70
2018-06-04T21:43:26.129Z,18.70
2018-06-04T21:48:55.656Z,18.50
2018-06-04T21:51:24.302Z,18.40
2018-06-04T21:53:53.110Z,18.20
2018-06-04T21:59:36.421Z,18.30
2018-06-04T22:02:05.515Z,18.30
2018-06-04T22:04:34.172Z,18.20
2018-06-04T22:07:03.097Z,18.20
2018-06-04T22:15:30.889Z,18.10
2018-06-04T22:21:13.683Z,17.90
2018-06-04T22:24:01.810Z,17.80
2018-06-04T22:26:30.775Z,17.80
2018-06-04T22:28:59.826Z,17.80
2018-06-04T22:31:28.810Z,17.80
2018-06-04T22:33:57.583Z,17.70
2018-06-04T22:36:26.398Z,17.70
2018-06-04T22:38:55.490Z,17.70
2018-06-04T22:41:24.369Z,17.60
2018-06-04T22:43:59.418Z,17.60
2018-06-04T22:46:28.754Z,17.50
2018-06-04T22:49:07.955Z,17.50
2018-06-04T22:55:32.019Z,17.40
2018-06-04T23:01:06.581Z,17.30
2018-06-04T23:03:53.474Z,17.20
2018-06-04T23:06:23.114Z,17.20
2018-06-04T23:09:06.549Z,17.10
2018-06-04T23:11:51.677Z,17.10
2018-06-04T23:14:20.377Z,17.00
2018-06-04T23:19:42.133Z,17.00
2018-06-04T23:22:11.087Z,17.00
2018-06-04T23:27:39.138Z,17.10
2018-06-04T23:30:08.423Z,17.00
2018-06-04T23:32:37.409Z,16.90
2018-06-04T23:35:06.186Z,16.90
2018-06-04T23:38:37.868Z,16.70
2018-06-04T23:43:06.554Z,16.60
2018-06-04T23:45:35.209Z,16.50
2018-06-04T23:48:03.840Z,16.40
2018-06-04T23:53:35.913Z,16.30
2018-06-04T23:56:04.639Z,16.20
2018-06-04T23:58:33.366Z,16.10
